sensor_id;sensor_type;location;lat;lon;timestamp;pressure;altitude;pressure_sealevel;temperature;humidity
30081;BME280;16902;50.816;12.828;2022-07-06T00:00:06;98273.38;;;13.71;100.00
30081;BME280;16902;50.816;12.828;2022-07-06T00:05:08;98276.50;;;13.81;100.00
30081;BME280;16902;50.816;12.828;2022-07-06T00:10:10;98285.09;;;13.96;100.00
30081;BME280;16902;50.816;12.828;2022-07-06T00:15:12;98282.72;;;14.01;100.00
30081;BME280;16902;50.816;12.828;2022-07-06T00:20:14;98278.91;;;14.04;100.00
30081;BME280;16902;50.816;12.828;2022-07-06T00:25:16;98271.00;;;13.97;100.00
30081;BME280;16902;50.816;12.828;2022-07-06T00:30:17;98265.72;;;13.91;100.00
30081;BME280;16902;50.816;12.828;2022-07-06T00:35:19;98263.09;;;13.91;100.00
30081;BME280;16902;50.816;12.828;2022-07-06T00:40:24;98268.78;;;13.94;100.00
30081;BME280;16902;50.816;12.828;2022-07-06T00:45:26;98267.53;;;13.90;100.00
30081;BME280;16902;50.816;12.828;2022-07-06T00:50:28;98273.31;;;13.85;100.00
30081;BME280;16902;50.816;12.828;2022-07-06T00:55:33;98276.63;;;13.94;100.00
30081;BME280;16902;50.816;12.828;2022-07-06T01:00:36;98266.06;;;13.87;100.00
30081;BME280;16902;50.816;12.828;2022-07-06T01:05:38;98264.84;;;13.83;100.00
30081;BME280;16902;50.816;12.828;2022-07-06T01:10:40;98254.31;;;13.77;100.00
30081;BME280;16902;50.816;12.828;2022-07-06T01:15:42;98243.84;;;13.77;100.00
30081;BME280;16902;50.816;12.828;2022-07-06T01:20:45;98249.84;;;13.71;100.00
30081;BME280;16902;50.816;12.828;2022-07-06T01:25:46;98236.31;;;13.67;100.00
30081;BME280;16902;50.816;12.828;2022-07-06T01:30:48;98244.00;;;13.69;100.00
30081;BME280;16902;50.816;12.828;2022-07-06T01:35:52;98239.13;;;13.66;100.00
30081;BME280;16902;50.816;12.828;2022-07-06T01:40:54;98250.84;;;13.70;100.00
30081;BME280;16902;50.816;12.828;2022-07-06T01:45:56;98235.69;;;13.65;100.00
30081;BME280;16902;50.816;12.828;2022-07-06T01:50:58;98238.50;;;13.63;100.00
30081;BME280;16902;50.816;12.828;2022-07-06T01:56:00;98233.00;;;13.58;100.00
30081;BME280;16902;50.816;12.828;2022-07-06T02:01:10;98230.59;;;13.57;100.00
30081;BME280;16902;50.816;12.828;2022-07-06T02:06:14;98236.81;;;13.56;100.00
30081;BME280;16902;50.816;12.828;2022-07-06T02:11:16;98223.69;;;13.49;100.00
30081;BME280;16902;50.816;12.828;2022-07-06T02:16:19;98226.84;;;13.45;100.00
30081;BME280;16902;50.816;12.828;2022-07-06T02:21:21;98230.50;;;13.29;100.00
30081;BME280;16902;50.816;12.828;2022-07-06T02:26:23;98229.25;;;13.10;100.00
30081;BME280;16902;50.816;12.828;2022-07-06T02:31:25;98231.34;;;13.00;100.00
30081;BME280;16902;50.816;12.828;2022-07-06T02:36:27;98247.44;;;12.82;100.00
30081;BME280;16902;50.816;12.828;2022-07-06T02:41:29;98241.75;;;12.64;100.00
30081;BME280;16902;50.816;12.828;2022-07-06T02:46:31;98240.59;;;12.51;100.00
30081;BME280;16902;50.816;12.828;2022-07-06T02:51:34;98243.03;;;12.38;100.00
30081;BME280;16902;50.816;12.828;2022-07-06T02:56:36;98235.00;;;12.25;100.00
30081;BME280;16902;50.816;12.828;2022-07-06T03:01:38;98237.41;;;12.12;100.00
30081;BME280;16902;50.816;12.828;2022-07-06T03:06:40;98238.72;;;12.07;100.00
30081;BME280;16902;50.816;12.828;2022-07-06T03:11:43;98238.56;;;11.94;100.00
30081;BME280;16902;50.816;12.828;2022-07-06T03:16:45;98248.25;;;11.86;100.00
30081;BME280;16902;50.816;12.828;2022-07-06T03:21:52;98247.44;;;11.77;100.00
30081;BME280;16902;50.816;12.828;2022-07-06T03:26:54;98247.78;;;11.74;100.00
30081;BME280;16902;50.816;12.828;2022-07-06T03:31:56;98250.63;;;11.64;100.00
30081;BME280;16902;50.816;12.828;2022-07-06T03:36:59;98251.28;;;11.66;100.00
30081;BME280;16902;50.816;12.828;2022-07-06T03:42:01;98251.09;;;11.68;100.00
30081;BME280;16902;50.816;12.828;2022-07-06T03:47:05;98258.13;;;11.67;100.00
30081;BME280;16902;50.816;12.828;2022-07-06T03:52:07;98265.75;;;11.69;100.00
30081;BME280;16902;50.816;12.828;2022-07-06T03:57:16;98265.25;;;11.73;100.00
30081;BME280;16902;50.816;12.828;2022-07-06T04:02:18;98267.69;;;11.75;100.00
30081;BME280;16902;50.816;12.828;2022-07-06T04:07:25;98271.06;;;11.83;100.00
30081;BME280;16902;50.816;12.828;2022-07-06T04:12:28;98274.13;;;11.87;100.00
30081;BME280;16902;50.816;12.828;2022-07-06T04:17:30;98285.34;;;11.96;100.00
30081;BME280;16902;50.816;12.828;2022-07-06T04:22:50;98269.28;;;12.22;100.00
30081;BME280;16902;50.816;12.828;2022-07-06T04:27:56;98282.78;;;12.25;100.00
30081;BME280;16902;50.816;12.828;2022-07-06T04:32:58;98286.41;;;12.39;100.00
30081;BME280;16902;50.816;12.828;2022-07-06T04:38:02;98290.47;;;12.56;100.00
30081;BME280;16902;50.816;12.828;2022-07-06T04:43:04;98297.34;;;12.72;100.00
30081;BME280;16902;50.816;12.828;2022-07-06T04:48:07;98306.63;;;12.90;100.00
30081;BME280;16902;50.816;12.828;2022-07-06T04:53:13;98307.41;;;13.05;100.00
30081;BME280;16902;50.816;12.828;2022-07-06T04:58:17;98302.28;;;13.11;100.00
30081;BME280;16902;50.816;12.828;2022-07-06T05:03:20;98302.56;;;13.31;100.00
30081;BME280;16902;50.816;12.828;2022-07-06T05:08:23;98312.00;;;13.32;100.00
30081;BME280;16902;50.816;12.828;2022-07-06T05:13:26;98332.19;;;13.38;100.00
30081;BME280;16902;50.816;12.828;2022-07-06T05:18:29;98333.28;;;13.44;100.00
30081;BME280;16902;50.816;12.828;2022-07-06T05:23:33;98328.47;;;13.48;100.00
30081;BME280;16902;50.816;12.828;2022-07-06T05:28:36;98332.81;;;13.55;100.00
30081;BME280;16902;50.816;12.828;2022-07-06T05:33:41;98341.56;;;13.48;100.00
30081;BME280;16902;50.816;12.828;2022-07-06T05:38:43;98356.59;;;13.60;100.00
30081;BME280;16902;50.816;12.828;2022-07-06T05:43:46;98365.50;;;14.02;100.00
30081;BME280;16902;50.816;12.828;2022-07-06T05:48:48;98357.03;;;14.22;100.00
30081;BME280;16902;50.816;12.828;2022-07-06T05:54:09;98360.03;;;14.68;100.00
30081;BME280;16902;50.816;12.828;2022-07-06T05:59:11;98364.91;;;15.06;100.00
30081;BME280;16902;50.816;12.828;2022-07-06T06:04:13;98375.75;;;15.37;100.00
30081;BME280;16902;50.816;12.828;2022-07-06T06:09:15;98374.09;;;15.23;100.00
30081;BME280;16902;50.816;12.828;2022-07-06T06:14:17;98381.84;;;15.03;100.00
30081;BME280;16902;50.816;12.828;2022-07-06T06:19:19;98381.56;;;14.91;100.00
30081;BME280;16902;50.816;12.828;2022-07-06T06:24:21;98392.50;;;15.36;100.00
30081;BME280;16902;50.816;12.828;2022-07-06T06:29:25;98393.31;;;15.72;100.00
30081;BME280;16902;50.816;12.828;2022-07-06T06:34:27;98393.53;;;15.83;100.00
30081;BME280;16902;50.816;12.828;2022-07-06T06:39:29;98405.34;;;15.59;100.00
30081;BME280;16902;50.816;12.828;2022-07-06T06:44:31;98405.69;;;15.50;100.00
30081;BME280;16902;50.816;12.828;2022-07-06T06:49:33;98407.63;;;15.76;100.00
30081;BME280;16902;50.816;12.828;2022-07-06T06:54:35;98419.84;;;15.97;100.00
30081;BME280;16902;50.816;12.828;2022-07-06T06:59:37;98417.06;;;16.18;100.00
30081;BME280;16902;50.816;12.828;2022-07-06T07:04:39;98418.69;;;16.26;100.00
30081;BME280;16902;50.816;12.828;2022-07-06T07:09:41;98423.19;;;16.65;100.00
30081;BME280;16902;50.816;12.828;2022-07-06T07:14:44;98428.84;;;16.68;100.00
30081;BME280;16902;50.816;12.828;2022-07-06T07:19:46;98430.06;;;16.86;100.00
30081;BME280;16902;50.816;12.828;2022-07-06T07:24:48;98436.53;;;16.96;100.00
30081;BME280;16902;50.816;12.828;2022-07-06T07:29:50;98430.25;;;17.17;100.00
30081;BME280;16902;50.816;12.828;2022-07-06T07:34:52;98426.28;;;17.60;100.00
30081;BME280;16902;50.816;12.828;2022-07-06T07:39:53;98439.22;;;18.19;100.00
30081;BME280;16902;50.816;12.828;2022-07-06T07:44:55;98440.81;;;18.20;100.00
30081;BME280;16902;50.816;12.828;2022-07-06T07:49:57;98441.94;;;18.94;100.00
30081;BME280;16902;50.816;12.828;2022-07-06T07:54:59;98435.94;;;18.81;100.00
30081;BME280;16902;50.816;12.828;2022-07-06T08:00:21;98430.91;;;19.22;100.00
30081;BME280;16902;50.816;12.828;2022-07-06T08:05:28;98439.47;;;18.74;100.00
30081;BME280;16902;50.816;12.828;2022-07-06T08:10:31;98435.91;;;19.86;100.00
30081;BME280;16902;50.816;12.828;2022-07-06T08:15:52;98425.03;;;19.39;100.00
30081;BME280;16902;50.816;12.828;2022-07-06T08:20:54;98429.63;;;19.68;100.00
30081;BME280;16902;50.816;12.828;2022-07-06T08:26:19;98435.09;;;19.30;100.00
30081;BME280;16902;50.816;12.828;2022-07-06T08:31:22;98433.94;;;19.44;100.00
30081;BME280;16902;50.816;12.828;2022-07-06T08:36:43;98433.56;;;19.22;100.00
30081;BME280;16902;50.816;12.828;2022-07-06T08:41:47;98433.94;;;18.83;100.00
30081;BME280;16902;50.816;12.828;2022-07-06T08:46:52;98438.97;;;18.84;100.00
30081;BME280;16902;50.816;12.828;2022-07-06T08:51:55;98439.56;;;19.11;100.00
30081;BME280;16902;50.816;12.828;2022-07-06T08:56:57;98438.09;;;19.34;100.00
30081;BME280;16902;50.816;12.828;2022-07-06T09:02:02;98436.97;;;18.80;100.00
30081;BME280;16902;50.816;12.828;2022-07-06T09:07:05;98437.44;;;19.20;100.00
30081;BME280;16902;50.816;12.828;2022-07-06T09:12:11;98438.78;;;19.84;100.00
30081;BME280;16902;50.816;12.828;2022-07-06T09:17:14;98433.22;;;19.74;100.00
30081;BME280;16902;50.816;12.828;2022-07-06T09:22:32;98441.84;;;19.26;100.00
30081;BME280;16902;50.816;12.828;2022-07-06T09:27:45;98437.63;;;19.80;100.00
30081;BME280;16902;50.816;12.828;2022-07-06T09:32:51;98431.69;;;19.96;100.00
30081;BME280;16902;50.816;12.828;2022-07-06T09:43:09;98436.09;;;20.33;100.00
30081;BME280;16902;50.816;12.828;2022-07-06T09:53:14;98438.66;;;21.04;100.00
30081;BME280;16902;50.816;12.828;2022-07-06T09:58:17;98433.66;;;21.67;100.00
30081;BME280;16902;50.816;12.828;2022-07-06T10:03:33;98438.25;;;22.74;100.00
30081;BME280;16902;50.816;12.828;2022-07-06T10:08:36;98425.28;;;22.61;100.00
30081;BME280;16902;50.816;12.828;2022-07-06T10:13:39;98417.16;;;22.84;100.00
30081;BME280;16902;50.816;12.828;2022-07-06T10:18:41;98421.88;;;23.16;100.00
30081;BME280;16902;50.816;12.828;2022-07-06T10:23:43;98418.25;;;21.80;100.00
30081;BME280;16902;50.816;12.828;2022-07-06T10:28:45;98418.84;;;21.30;100.00
30081;BME280;16902;50.816;12.828;2022-07-06T10:33:48;98404.44;;;21.26;100.00
30081;BME280;16902;50.816;12.828;2022-07-06T10:38:52;98415.25;;;21.48;100.00
30081;BME280;16902;50.816;12.828;2022-07-06T10:43:54;98419.06;;;21.41;100.00
30081;BME280;16902;50.816;12.828;2022-07-06T10:48:58;98408.06;;;22.29;100.00
30081;BME280;16902;50.816;12.828;2022-07-06T10:54:04;98398.97;;;23.09;100.00
30081;BME280;16902;50.816;12.828;2022-07-06T10:59:10;98403.25;;;23.32;100.00
30081;BME280;16902;50.816;12.828;2022-07-06T11:04:14;98392.97;;;23.80;100.00
30081;BME280;16902;50.816;12.828;2022-07-06T11:09:17;98395.03;;;24.00;100.00
30081;BME280;16902;50.816;12.828;2022-07-06T11:14:20;98396.34;;;23.31;100.00
30081;BME280;16902;50.816;12.828;2022-07-06T11:19:23;98387.50;;;26.08;79.68
30081;BME280;16902;50.816;12.828;2022-07-06T11:24:27;98391.25;;;25.29;82.93
30081;BME280;16902;50.816;12.828;2022-07-06T11:29:30;98383.22;;;24.18;84.92
30081;BME280;16902;50.816;12.828;2022-07-06T11:34:34;98391.75;;;23.93;94.64
30081;BME280;16902;50.816;12.828;2022-07-06T11:39:40;98384.84;;;27.80;66.44
30081;BME280;16902;50.816;12.828;2022-07-06T11:44:43;98389.84;;;28.36;56.29
30081;BME280;16902;50.816;12.828;2022-07-06T11:49:49;98394.88;;;30.11;49.32
30081;BME280;16902;50.816;12.828;2022-07-06T11:54:57;98385.66;;;26.90;55.12
30081;BME280;16902;50.816;12.828;2022-07-06T11:59:59;98392.41;;;25.49;66.78
30081;BME280;16902;50.816;12.828;2022-07-06T12:05:01;98379.22;;;26.00;57.18
30081;BME280;16902;50.816;12.828;2022-07-06T12:10:04;98374.59;;;29.19;50.05
30081;BME280;16902;50.816;12.828;2022-07-06T12:15:06;98376.22;;;32.93;38.91
30081;BME280;16902;50.816;12.828;2022-07-06T12:20:09;98374.28;;;33.99;38.29
30081;BME280;16902;50.816;12.828;2022-07-06T12:25:11;98361.31;;;31.20;39.66
30081;BME280;16902;50.816;12.828;2022-07-06T12:30:13;98351.22;;;27.59;48.10
30081;BME280;16902;50.816;12.828;2022-07-06T12:35:23;98359.41;;;30.93;40.72
30081;BME280;16902;50.816;12.828;2022-07-06T12:40:26;98361.84;;;33.98;37.31
30081;BME280;16902;50.816;12.828;2022-07-06T12:45:31;98357.44;;;30.01;42.03
30081;BME280;16902;50.816;12.828;2022-07-06T12:50:38;98352.94;;;27.29;45.64
30081;BME280;16902;50.816;12.828;2022-07-06T12:55:40;98360.84;;;30.06;41.38
30081;BME280;16902;50.816;12.828;2022-07-06T13:00:45;98363.75;;;35.26;35.30
30081;BME280;16902;50.816;12.828;2022-07-06T13:05:51;98351.38;;;37.37;30.63
30081;BME280;16902;50.816;12.828;2022-07-06T13:10:53;98358.41;;;38.18;29.80
30081;BME280;16902;50.816;12.828;2022-07-06T13:15:55;98359.72;;;38.68;30.79
30081;BME280;16902;50.816;12.828;2022-07-06T13:20:57;98355.84;;;34.74;34.25
30081;BME280;16902;50.816;12.828;2022-07-06T13:25:59;98341.78;;;36.12;31.46
30081;BME280;16902;50.816;12.828;2022-07-06T13:31:01;98340.03;;;37.99;30.35
30081;BME280;16902;50.816;12.828;2022-07-06T13:36:09;98336.63;;;35.06;34.29
30081;BME280;16902;50.816;12.828;2022-07-06T13:41:11;98340.06;;;37.22;30.74
30081;BME280;16902;50.816;12.828;2022-07-06T13:46:13;98340.00;;;36.16;33.10
30081;BME280;16902;50.816;12.828;2022-07-06T13:51:15;98326.31;;;32.82;36.38
30081;BME280;16902;50.816;12.828;2022-07-06T13:56:17;98325.00;;;33.11;35.24
30081;BME280;16902;50.816;12.828;2022-07-06T14:01:19;98316.53;;;32.10;37.79
30081;BME280;16902;50.816;12.828;2022-07-06T14:06:28;98308.00;;;30.20;37.93
30081;BME280;16902;50.816;12.828;2022-07-06T14:11:30;98317.94;;;34.83;33.46
30081;BME280;16902;50.816;12.828;2022-07-06T14:16:34;98312.16;;;33.08;36.00
30081;BME280;16902;50.816;12.828;2022-07-06T14:21:36;98305.25;;;37.65;29.08
30081;BME280;16902;50.816;12.828;2022-07-06T14:26:38;98315.13;;;33.81;33.54
30081;BME280;16902;50.816;12.828;2022-07-06T14:31:40;98314.31;;;38.25;31.21
30081;BME280;16902;50.816;12.828;2022-07-06T14:36:42;98313.56;;;38.72;28.31
30081;BME280;16902;50.816;12.828;2022-07-06T14:41:44;98296.84;;;33.43;33.71
30081;BME280;16902;50.816;12.828;2022-07-06T14:46:46;98294.81;;;35.87;30.06
30081;BME280;16902;50.816;12.828;2022-07-06T14:51:48;98287.19;;;36.22;29.40
30081;BME280;16902;50.816;12.828;2022-07-06T14:56:50;98279.34;;;31.90;33.90
30081;BME280;16902;50.816;12.828;2022-07-06T15:01:52;98284.91;;;30.19;35.63
30081;BME280;16902;50.816;12.828;2022-07-06T15:06:55;98273.22;;;29.78;38.48
30081;BME280;16902;50.816;12.828;2022-07-06T15:11:58;98281.78;;;31.78;35.17
30081;BME280;16902;50.816;12.828;2022-07-06T15:16:59;98294.63;;;35.29;30.88
30081;BME280;16902;50.816;12.828;2022-07-06T15:22:02;98291.78;;;37.16;29.05
30081;BME280;16902;50.816;12.828;2022-07-06T15:27:05;98287.91;;;35.35;30.51
30081;BME280;16902;50.816;12.828;2022-07-06T15:32:07;98285.66;;;34.31;32.02
30081;BME280;16902;50.816;12.828;2022-07-06T15:37:09;98275.34;;;32.72;32.28
30081;BME280;16902;50.816;12.828;2022-07-06T15:42:11;98263.91;;;28.41;37.97
30081;BME280;16902;50.816;12.828;2022-07-06T15:47:13;98258.56;;;26.38;41.52
30081;BME280;16902;50.816;12.828;2022-07-06T15:52:15;98259.94;;;24.92;43.60
30081;BME280;16902;50.816;12.828;2022-07-06T15:57:17;98248.91;;;23.61;48.67
30081;BME280;16902;50.816;12.828;2022-07-06T16:02:19;98234.09;;;24.02;46.51
30081;BME280;16902;50.816;12.828;2022-07-06T16:07:22;98236.81;;;25.02;45.35
30081;BME280;16902;50.816;12.828;2022-07-06T16:12:44;98231.56;;;24.18;45.88
30081;BME280;16902;50.816;12.828;2022-07-06T16:17:46;98246.56;;;24.34;46.69
30081;BME280;16902;50.816;12.828;2022-07-06T16:22:48;98230.47;;;23.76;49.17
30081;BME280;16902;50.816;12.828;2022-07-06T16:27:50;98226.63;;;23.40;51.63
30081;BME280;16902;50.816;12.828;2022-07-06T16:32:53;98223.28;;;22.79;48.64
30081;BME280;16902;50.816;12.828;2022-07-06T16:37:55;98223.50;;;22.94;49.07
30081;BME280;16902;50.816;12.828;2022-07-06T16:42:57;98217.53;;;22.65;50.03
30081;BME280;16902;50.816;12.828;2022-07-06T16:47:59;98221.75;;;23.05;50.49
30081;BME280;16902;50.816;12.828;2022-07-06T16:53:01;98232.91;;;23.02;50.03
30081;BME280;16902;50.816;12.828;2022-07-06T16:58:03;98229.38;;;22.19;52.13
30081;BME280;16902;50.816;12.828;2022-07-06T17:03:05;98233.28;;;21.99;51.01
30081;BME280;16902;50.816;12.828;2022-07-06T17:08:07;98212.25;;;21.76;53.35
30081;BME280;16902;50.816;12.828;2022-07-06T17:13:09;98219.13;;;21.60;52.52
30081;BME280;16902;50.816;12.828;2022-07-06T17:18:11;98221.63;;;21.50;56.92
30081;BME280;16902;50.816;12.828;2022-07-06T17:23:14;98214.00;;;21.25;57.64
30081;BME280;16902;50.816;12.828;2022-07-06T17:28:16;98222.81;;;21.02;57.51
30081;BME280;16902;50.816;12.828;2022-07-06T17:33:18;98222.16;;;20.95;60.06
30081;BME280;16902;50.816;12.828;2022-07-06T17:38:20;98230.72;;;20.73;60.69
30081;BME280;16902;50.816;12.828;2022-07-06T17:43:23;98235.69;;;20.58;61.68
30081;BME280;16902;50.816;12.828;2022-07-06T17:48:25;98238.81;;;20.32;60.90
30081;BME280;16902;50.816;12.828;2022-07-06T17:53:27;98244.53;;;19.93;62.77
30081;BME280;16902;50.816;12.828;2022-07-06T17:58:30;98255.53;;;19.79;68.62
30081;BME280;16902;50.816;12.828;2022-07-06T18:03:32;98239.34;;;19.57;65.62
30081;BME280;16902;50.816;12.828;2022-07-06T18:08:34;98241.50;;;19.48;65.09
30081;BME280;16902;50.816;12.828;2022-07-06T18:13:36;98227.47;;;19.36;69.76
30081;BME280;16902;50.816;12.828;2022-07-06T18:18:37;98235.97;;;19.38;70.84
30081;BME280;16902;50.816;12.828;2022-07-06T18:23:39;98235.69;;;19.27;74.72
30081;BME280;16902;50.816;12.828;2022-07-06T18:28:41;98234.28;;;18.95;71.37
30081;BME280;16902;50.816;12.828;2022-07-06T18:33:43;98241.25;;;18.53;79.30
30081;BME280;16902;50.816;12.828;2022-07-06T18:38:45;98247.69;;;18.13;84.45
30081;BME280;16902;50.816;12.828;2022-07-06T18:43:47;98248.84;;;17.92;79.11
30081;BME280;16902;50.816;12.828;2022-07-06T18:48:49;98252.84;;;17.77;89.67
30081;BME280;16902;50.816;12.828;2022-07-06T18:53:51;98245.94;;;17.69;91.37
30081;BME280;16902;50.816;12.828;2022-07-06T18:58:56;98246.56;;;17.71;81.78
30081;BME280;16902;50.816;12.828;2022-07-06T19:03:58;98255.09;;;17.66;97.80
30081;BME280;16902;50.816;12.828;2022-07-06T19:09:00;98263.88;;;17.54;93.51
30081;BME280;16902;50.816;12.828;2022-07-06T19:14:02;98260.72;;;17.38;98.75
30081;BME280;16902;50.816;12.828;2022-07-06T19:19:05;98263.19;;;17.33;100.00
30081;BME280;16902;50.816;12.828;2022-07-06T19:24:08;98259.97;;;17.25;96.94
30081;BME280;16902;50.816;12.828;2022-07-06T19:29:12;98269.31;;;17.20;94.06
30081;BME280;16902;50.816;12.828;2022-07-06T19:34:14;98275.66;;;17.06;100.00
30081;BME280;16902;50.816;12.828;2022-07-06T19:39:16;98270.66;;;16.85;100.00
30081;BME280;16902;50.816;12.828;2022-07-06T19:44:18;98278.16;;;16.68;100.00
30081;BME280;16902;50.816;12.828;2022-07-06T19:49:20;98283.06;;;16.44;100.00
30081;BME280;16902;50.816;12.828;2022-07-06T19:54:22;98278.84;;;16.30;100.00
30081;BME280;16902;50.816;12.828;2022-07-06T19:59:24;98291.34;;;16.28;100.00
30081;BME280;16902;50.816;12.828;2022-07-06T20:04:26;98283.06;;;15.98;100.00
30081;BME280;16902;50.816;12.828;2022-07-06T20:09:28;98284.84;;;15.71;100.00
30081;BME280;16902;50.816;12.828;2022-07-06T20:14:30;98283.53;;;15.40;100.00
30081;BME280;16902;50.816;12.828;2022-07-06T20:19:32;98279.63;;;15.16;100.00
30081;BME280;16902;50.816;12.828;2022-07-06T20:24:34;98282.16;;;14.90;100.00
30081;BME280;16902;50.816;12.828;2022-07-06T20:29:36;98279.66;;;14.75;100.00
30081;BME280;16902;50.816;12.828;2022-07-06T20:34:38;98274.00;;;14.78;100.00
30081;BME280;16902;50.816;12.828;2022-07-06T20:39:39;98280.06;;;14.79;100.00
30081;BME280;16902;50.816;12.828;2022-07-06T20:44:41;98275.56;;;14.66;100.00
30081;BME280;16902;50.816;12.828;2022-07-06T20:49:45;98284.66;;;14.42;100.00
30081;BME280;16902;50.816;12.828;2022-07-06T20:54:47;98276.69;;;14.29;100.00
30081;BME280;16902;50.816;12.828;2022-07-06T20:59:50;98277.03;;;14.19;100.00
30081;BME280;16902;50.816;12.828;2022-07-06T21:04:52;98290.16;;;13.98;100.00
30081;BME280;16902;50.816;12.828;2022-07-06T21:09:55;98288.91;;;13.94;100.00
30081;BME280;16902;50.816;12.828;2022-07-06T21:14:57;98281.94;;;13.79;100.00
30081;BME280;16902;50.816;12.828;2022-07-06T21:19:59;98277.88;;;13.55;100.00
30081;BME280;16902;50.816;12.828;2022-07-06T21:25:01;98282.63;;;13.30;100.00
30081;BME280;16902;50.816;12.828;2022-07-06T21:30:04;98282.72;;;13.07;100.00
30081;BME280;16902;50.816;12.828;2022-07-06T21:35:06;98274.91;;;12.93;100.00
30081;BME280;16902;50.816;12.828;2022-07-06T21:40:08;98274.09;;;12.77;100.00
30081;BME280;16902;50.816;12.828;2022-07-06T21:45:10;98272.03;;;12.58;100.00
30081;BME280;16902;50.816;12.828;2022-07-06T21:50:12;98269.56;;;12.42;100.00
30081;BME280;16902;50.816;12.828;2022-07-06T21:55:14;98268.03;;;12.32;100.00
30081;BME280;16902;50.816;12.828;2022-07-06T22:00:17;98264.59;;;12.17;100.00
30081;BME280;16902;50.816;12.828;2022-07-06T22:05:19;98257.66;;;12.09;100.00
30081;BME280;16902;50.816;12.828;2022-07-06T22:10:21;98262.47;;;11.98;100.00
30081;BME280;16902;50.816;12.828;2022-07-06T22:15:23;98262.72;;;11.88;100.00
30081;BME280;16902;50.816;12.828;2022-07-06T22:20:25;98269.91;;;11.86;100.00
30081;BME280;16902;50.816;12.828;2022-07-06T22:25:27;98263.28;;;11.75;100.00
30081;BME280;16902;50.816;12.828;2022-07-06T22:30:29;98266.00;;;11.59;100.00
30081;BME280;16902;50.816;12.828;2022-07-06T22:35:30;98262.22;;;11.39;100.00
30081;BME280;16902;50.816;12.828;2022-07-06T22:40:32;98260.63;;;11.29;100.00
30081;BME280;16902;50.816;12.828;2022-07-06T22:45:53;98256.34;;;11.14;100.00
30081;BME280;16902;50.816;12.828;2022-07-06T22:50:56;98251.81;;;11.07;100.00
30081;BME280;16902;50.816;12.828;2022-07-06T22:55:58;98246.66;;;10.91;100.00
30081;BME280;16902;50.816;12.828;2022-07-06T23:01:08;98247.84;;;10.80;100.00
30081;BME280;16902;50.816;12.828;2022-07-06T23:06:10;98248.19;;;10.77;100.00
30081;BME280;16902;50.816;12.828;2022-07-06T23:11:14;98248.53;;;10.74;100.00
30081;BME280;16902;50.816;12.828;2022-07-06T23:16:16;98246.06;;;10.73;100.00
30081;BME280;16902;50.816;12.828;2022-07-06T23:21:18;98242.34;;;10.75;100.00
30081;BME280;16902;50.816;12.828;2022-07-06T23:26:26;98238.72;;;10.85;100.00
30081;BME280;16902;50.816;12.828;2022-07-06T23:31:27;98236.94;;;10.77;100.00
30081;BME280;16902;50.816;12.828;2022-07-06T23:36:29;98235.03;;;10.71;100.00
30081;BME280;16902;50.816;12.828;2022-07-06T23:41:31;98236.94;;;10.77;100.00
30081;BME280;16902;50.816;12.828;2022-07-06T23:46:33;98223.78;;;10.78;100.00
30081;BME280;16902;50.816;12.828;2022-07-06T23:51:35;98216.91;;;10.77;100.00
30081;BME280;16902;50.816;12.828;2022-07-06T23:56:37;98220.22;;;10.71;100.00
